createdAt,value
2022-09-27T00:01:10.044Z,98861.88
2022-09-27T00:03:36.777Z,98856.69
2022-09-27T00:06:09.571Z,98854.06
2022-09-27T00:08:36.559Z,98854.94
2022-09-27T00:11:09.518Z,98841.91
2022-09-27T00:13:35.993Z,98839.34
2022-09-27T00:16:06.432Z,98845.41
2022-09-27T00:18:33.468Z,98832.41
2022-09-27T00:21:08.078Z,98835.06
2022-09-27T00:23:35.042Z,98828.09
2022-09-27T00:26:01.668Z,98832.44
2022-09-27T00:28:28.523Z,98826.34
2022-09-27T00:30:54.990Z,98829.81
2022-09-27T00:33:21.418Z,98831.56
2022-09-27T00:35:47.827Z,98818.56
2022-09-27T00:38:14.635Z,98814.22
2022-09-27T00:40:41.148Z,98817.69
2022-09-27T00:43:17.263Z,98804.66
2022-09-27T00:45:48.431Z,98809.91
2022-09-27T00:48:16.367Z,98801.22
2022-09-27T00:50:45.251Z,98803.84
2022-09-27T00:53:22.834Z,98792.56
2022-09-27T00:55:56.029Z,98794.31
2022-09-27T00:58:26.128Z,98790.84
2022-09-27T01:00:55.907Z,98778.69
2022-09-27T01:03:33.069Z,98778.69
2022-09-27T01:05:59.938Z,98766.53
2022-09-27T01:08:26.331Z,98773.47
2022-09-27T01:11:19.261Z,98764.81
2022-09-27T01:14:09.310Z,98763.94
2022-09-27T01:16:54.551Z,98766.56
2022-09-27T01:19:52.064Z,98757.91
2022-09-27T01:22:26.190Z,98755.31
2022-09-27T01:25:45.803Z,98760.56
2022-09-27T01:28:20.215Z,98768.38
2022-09-27T01:31:11.983Z,98758.84
2022-09-27T01:34:02.843Z,98751.91
2022-09-27T01:36:43.816Z,98749.31
2022-09-27T01:39:41.004Z,98741.50
2022-09-27T01:42:48.018Z,98734.59
2022-09-27T01:45:32.276Z,98747.59
2022-09-27T01:48:02.068Z,98731.97
2022-09-27T01:50:36.294Z,98731.97
2022-09-27T01:53:09.034Z,98733.75
2022-09-27T01:55:37.701Z,98729.41
2022-09-27T01:58:18.090Z,98723.31
2022-09-27T02:00:47.290Z,98723.31
2022-09-27T02:03:18.277Z,98725.03
2022-09-27T02:05:49.338Z,98726.78
2022-09-27T02:08:23.143Z,98727.63
2022-09-27T02:10:51.442Z,98723.31
2022-09-27T02:13:21.703Z,98717.25
2022-09-27T02:15:55.184Z,98714.66
2022-09-27T02:18:41.344Z,98723.34
2022-09-27T02:21:10.179Z,98713.81
2022-09-27T02:23:41.667Z,98714.69
2022-09-27T02:26:14.831Z,98714.69
2022-09-27T02:28:49.881Z,98708.66
2022-09-27T02:31:16.460Z,98709.50
2022-09-27T02:33:49.477Z,98700.84
2022-09-27T02:36:17.470Z,98700.84
2022-09-27T02:38:44.435Z,98699.09
2022-09-27T02:41:18.675Z,98697.38
2022-09-27T02:43:48.478Z,98694.75
2022-09-27T02:46:24.219Z,98693.03
2022-09-27T02:49:28.325Z,98694.78
2022-09-27T02:52:06.989Z,98693.91
2022-09-27T02:54:48.742Z,98687.00
2022-09-27T02:57:52.630Z,98684.41
2022-09-27T03:00:21.126Z,98683.53
2022-09-27T03:03:02.119Z,98686.16
2022-09-27T03:05:32.544Z,98687.91
2022-09-27T03:07:58.985Z,98686.13
2022-09-27T03:10:28.225Z,98680.06
2022-09-27T03:12:56.060Z,98682.66
2022-09-27T03:15:22.488Z,98677.47
2022-09-27T03:17:48.887Z,98674.88
2022-09-27T03:20:15.336Z,98674.88
2022-09-27T03:22:42.350Z,98665.34
2022-09-27T03:25:09.018Z,98666.22
2022-09-27T03:27:35.471Z,98672.31
2022-09-27T03:30:01.908Z,98666.25
2022-09-27T03:32:28.307Z,98665.41
2022-09-27T03:34:55.714Z,98666.28
2022-09-27T03:37:22.404Z,98657.59
2022-09-27T03:39:49.528Z,98656.72
2022-09-27T03:42:15.950Z,98659.31
2022-09-27T03:44:43.017Z,98658.47
2022-09-27T03:47:09.408Z,98649.78
2022-09-27T03:49:35.834Z,98655.00
2022-09-27T03:52:02.348Z,98655.00
2022-09-27T03:54:28.732Z,98648.94
2022-09-27T03:56:55.121Z,98648.94
2022-09-27T03:59:21.518Z,98645.47
2022-09-27T04:01:48.006Z,98652.38
2022-09-27T04:04:14.802Z,98654.13
2022-09-27T04:06:41.241Z,98651.53
2022-09-27T04:09:07.635Z,98649.78
2022-09-27T04:11:34.062Z,98644.59
2022-09-27T04:14:00.465Z,98652.38
2022-09-27T04:16:27.517Z,98638.53
2022-09-27T04:18:54.007Z,98647.19
2022-09-27T04:21:20.634Z,98646.31
2022-09-27T04:23:47.141Z,98646.31
2022-09-27T04:26:13.710Z,98639.41
2022-09-27T04:28:40.572Z,98647.22
2022-09-27T04:31:07.011Z,98642.03
2022-09-27T04:33:33.494Z,98649.84
2022-09-27T04:36:18.495Z,98641.19
2022-09-27T04:38:44.902Z,98639.44
2022-09-27T04:41:11.718Z,98638.56
2022-09-27T04:43:38.117Z,98635.09
2022-09-27T04:46:04.645Z,98636.81
2022-09-27T04:48:31.062Z,98642.91
2022-09-27T04:50:59.001Z,98637.72
2022-09-27T04:53:25.687Z,98638.56
2022-09-27T04:55:54.118Z,98643.78
2022-09-27T04:58:24.086Z,98642.94
2022-09-27T05:00:55.622Z,98651.59
2022-09-27T05:03:22.870Z,98651.59
2022-09-27T05:05:49.262Z,98649.00
2022-09-27T05:08:15.684Z,98649.00
2022-09-27T05:10:42.086Z,98638.59
2022-09-27T05:13:08.483Z,98642.06
2022-09-27T05:15:36.161Z,98634.25
2022-09-27T05:18:02.618Z,98640.34
2022-09-27T05:20:29.055Z,98635.13
2022-09-27T05:22:55.803Z,98645.53
2022-09-27T05:25:22.265Z,98647.28
2022-09-27T05:27:50.116Z,98640.34
2022-09-27T05:30:16.685Z,98645.53
2022-09-27T05:32:43.963Z,98644.66
2022-09-27T05:35:10.468Z,98642.06
2022-09-27T05:37:36.937Z,98650.75
2022-09-27T05:40:17.050Z,98640.31
2022-09-27T05:42:51.260Z,98644.66
2022-09-27T05:45:17.874Z,98648.13
2022-09-27T05:47:44.294Z,98649.00
2022-09-27T05:50:10.861Z,98649.84
2022-09-27T05:52:37.282Z,98645.50
2022-09-27T05:55:03.903Z,98655.03
2022-09-27T05:57:30.337Z,98649.81
2022-09-27T05:59:56.719Z,98648.06
2022-09-27T06:02:23.224Z,98648.91
2022-09-27T06:04:49.668Z,98645.47
2022-09-27T06:07:16.245Z,98643.75
2022-09-27T06:09:44.191Z,98656.72
2022-09-27T06:12:11.820Z,98655.84
2022-09-27T06:14:38.269Z,98657.56
2022-09-27T06:17:05.853Z,98638.50
2022-09-27T06:19:32.322Z,98649.75
2022-09-27T06:21:58.722Z,98642.81
2022-09-27T06:24:25.136Z,98646.25
2022-09-27T06:26:51.528Z,98654.06
2022-09-27T06:29:17.911Z,98658.41
2022-09-27T06:31:44.327Z,98654.91
2022-09-27T06:34:10.809Z,98659.25
2022-09-27T06:36:37.244Z,98652.31
2022-09-27T06:39:03.709Z,98655.75
2022-09-27T06:41:30.445Z,98658.34
2022-09-27T06:43:56.860Z,98657.50
2022-09-27T06:46:23.318Z,98667.00
2022-09-27T06:48:49.891Z,98664.41
2022-09-27T06:51:16.295Z,98663.53
2022-09-27T06:53:42.746Z,98661.78
2022-09-27T06:56:09.141Z,98666.94
2022-09-27T06:58:54.233Z,98666.06
2022-09-27T07:01:20.702Z,98667.78
2022-09-27T07:03:50.857Z,98665.13
2022-09-27T07:06:24.913Z,98664.22
2022-09-27T07:08:52.312Z,98673.75
2022-09-27T07:11:19.120Z,98665.91
2022-09-27T07:13:45.751Z,98665.00
2022-09-27T07:16:15.636Z,98671.06
2022-09-27T07:18:42.562Z,98675.38
2022-09-27T07:21:09.143Z,98675.34
2022-09-27T07:23:36.264Z,98675.34
2022-09-27T07:26:07.404Z,98688.34
2022-09-27T07:28:34.661Z,98690.03
2022-09-27T07:31:02.516Z,98693.53
2022-09-27T07:33:30.110Z,98686.56
2022-09-27T07:35:56.522Z,98691.78
2022-09-27T07:38:23.063Z,98697.03
2022-09-27T07:40:49.597Z,98700.53
2022-09-27T07:43:16.206Z,98690.13
2022-09-27T07:45:42.714Z,98704.06
2022-09-27T07:48:12.887Z,98704.03
2022-09-27T07:50:39.496Z,98705.81
2022-09-27T07:53:06.280Z,98719.72
2022-09-27T07:55:32.879Z,98715.41
2022-09-27T07:58:10.045Z,98718.91
2022-09-27T08:00:37.390Z,98716.38
2022-09-27T08:03:08.241Z,98718.97
2022-09-27T08:05:36.168Z,98723.31
2022-09-27T08:08:03.373Z,98724.13
2022-09-27T08:10:31.715Z,98726.72
2022-09-27T08:12:59.416Z,98725.84
2022-09-27T08:15:25.859Z,98732.75
2022-09-27T08:17:53.205Z,98737.94
2022-09-27T08:20:19.600Z,98743.16
2022-09-27T08:22:46.046Z,98744.00
2022-09-27T08:25:12.435Z,98748.31
2022-09-27T08:27:38.820Z,98754.41
2022-09-27T08:30:05.796Z,98759.59
2022-09-27T08:32:32.756Z,98763.13
2022-09-27T08:34:59.653Z,98764.00
2022-09-27T08:37:26.562Z,98757.06
2022-09-27T08:39:52.943Z,98767.53
2022-09-27T08:42:39.857Z,98773.56
2022-09-27T08:45:18.559Z,98773.56
2022-09-27T08:47:52.836Z,98776.22
2022-09-27T08:50:29.250Z,98782.28
2022-09-27T08:53:18.404Z,98789.25
2022-09-27T08:55:49.459Z,98790.97
2022-09-27T08:58:29.513Z,98788.38
2022-09-27T09:00:57.584Z,98786.66
2022-09-27T09:03:27.465Z,98789.25
2022-09-27T09:06:16.772Z,98790.16
2022-09-27T09:08:57.323Z,98797.13
2022-09-27T09:12:11.858Z,98803.19
2022-09-27T09:14:41.104Z,98805.78
2022-09-27T09:17:45.306Z,98804.06
2022-09-27T09:20:23.828Z,98807.53
2022-09-27T09:22:57.669Z,98806.66
2022-09-27T09:25:31.402Z,98809.25
2022-09-27T09:28:02.614Z,98819.66
2022-09-27T09:30:56.610Z,98813.59
2022-09-27T09:33:50.717Z,98811.84
2022-09-27T09:36:29.119Z,98822.22
2022-09-27T09:39:03.710Z,98819.63
2022-09-27T09:41:36.423Z,98823.97
2022-09-27T09:44:24.856Z,98828.31
2022-09-27T09:46:53.877Z,98828.28
2022-09-27T09:49:24.318Z,98824.84
2022-09-27T09:52:04.121Z,98824.84
2022-09-27T09:54:57.327Z,98830.91
2022-09-27T09:57:40.178Z,98831.75
2022-09-27T10:00:18.080Z,98831.78
2022-09-27T10:02:46.125Z,98830.88
2022-09-27T10:05:21.089Z,98832.59
2022-09-27T10:07:50.589Z,98823.03
2022-09-27T10:10:18.509Z,98829.94
2022-09-27T10:12:46.414Z,98826.44
2022-09-27T10:15:21.638Z,98835.13
2022-09-27T10:17:50.484Z,98829.91
2022-09-27T10:20:37.198Z,98829.88
2022-09-27T10:23:19.514Z,98839.44
2022-09-27T10:25:57.090Z,98837.69
2022-09-27T10:28:39.768Z,98842.88
2022-09-27T10:31:15.047Z,98839.41
2022-09-27T10:33:59.705Z,98833.38
2022-09-27T10:36:29.212Z,98849.88
2022-09-27T10:38:57.580Z,98851.63
2022-09-27T10:41:41.551Z,98855.09
2022-09-27T10:44:34.513Z,98855.09
2022-09-27T10:47:09.179Z,98854.22
2022-09-27T10:49:40.923Z,98853.34
2022-09-27T10:52:19.090Z,98858.56
2022-09-27T10:55:00.114Z,98855.09
2022-09-27T10:57:30.733Z,98863.75
2022-09-27T11:00:20.878Z,98865.47
2022-09-27T11:02:56.358Z,98860.22
2022-09-27T11:05:27.835Z,98854.97
2022-09-27T11:07:56.757Z,98854.94
2022-09-27T11:10:36.377Z,98856.66
2022-09-27T11:13:08.610Z,98858.38
2022-09-27T11:16:12.822Z,98875.75
2022-09-27T11:19:15.406Z,98861.91
2022-09-27T11:22:01.320Z,98869.72
2022-09-27T11:24:47.689Z,98861.03
2022-09-27T11:27:32.331Z,98861.00
2022-09-27T11:30:07.418Z,98867.03
2022-09-27T11:33:05.509Z,98860.97
2022-09-27T11:35:50.581Z,98862.66
2022-09-27T11:38:53.492Z,98870.44
2022-09-27T11:41:33.231Z,98861.78
2022-09-27T11:44:14.900Z,98862.66
2022-09-27T11:46:42.592Z,98865.28
2022-09-27T11:49:18.456Z,98868.81
2022-09-27T11:52:03.594Z,98874.84
2022-09-27T11:55:07.689Z,98867.88
2022-09-27T11:57:39.146Z,98868.72
2022-09-27T12:00:16.907Z,98875.66
2022-09-27T12:03:00.510Z,98875.66
2022-09-27T12:05:32.387Z,98873.88
2022-09-27T12:08:07.571Z,98875.63
2022-09-27T12:10:34.459Z,98873.81
2022-09-27T12:13:01.304Z,98868.56
2022-09-27T12:15:33.957Z,98864.97
2022-09-27T12:18:22.995Z,98870.94
2022-09-27T12:20:49.635Z,98866.44
2022-09-27T12:23:23.650Z,98866.41
2022-09-27T12:25:54.726Z,98867.16
2022-09-27T12:28:31.066Z,98869.78
2022-09-27T12:31:27.489Z,98862.78
2022-09-27T12:33:57.964Z,98870.56
2022-09-27T12:36:27.094Z,98873.97
2022-09-27T12:39:01.968Z,98884.41
2022-09-27T12:45:17.150Z,98880.19
2022-09-27T12:48:05.228Z,98881.94
2022-09-27T12:50:44.998Z,98882.81
2022-09-27T12:53:46.331Z,98887.16
2022-09-27T12:56:39.025Z,98892.47
2022-09-27T12:59:20.578Z,98890.75
2022-09-27T13:02:04.385Z,98888.13
2022-09-27T13:04:46.712Z,98899.38
2022-09-27T13:07:37.607Z,98891.50
2022-09-27T13:10:34.882Z,98899.38
2022-09-27T13:13:02.149Z,98894.13
2022-09-27T13:15:32.072Z,98883.69
2022-09-27T13:18:05.390Z,98899.31
2022-09-27T13:20:34.698Z,98904.59
2022-09-27T13:23:03.509Z,98905.44
2022-09-27T13:25:54.260Z,98903.81
2022-09-27T13:28:35.949Z,98910.03
2022-09-27T13:34:54.833Z,98912.66
2022-09-27T13:37:36.932Z,98901.31
2022-09-27T13:40:30.439Z,98904.78
2022-09-27T13:43:17.658Z,98910.00
2022-09-27T13:45:55.265Z,98922.25
2022-09-27T13:48:27.590Z,98922.25
2022-09-27T13:51:16.740Z,98927.47
2022-09-27T13:53:46.687Z,98922.25
2022-09-27T13:56:46.621Z,98930.06
2022-09-27T13:59:52.527Z,98930.94
2022-09-27T14:02:36.915Z,98931.84
2022-09-27T14:05:03.792Z,98936.25
2022-09-27T14:07:59.803Z,98931.88
2022-09-27T14:11:17.158Z,98937.94
2022-09-27T14:13:44.919Z,98931.03
2022-09-27T14:16:15.848Z,98931.06
2022-09-27T14:18:50.849Z,98930.25
2022-09-27T14:21:25.355Z,98938.00
2022-09-27T14:23:51.823Z,98936.34
2022-09-27T14:26:28.042Z,98932.81
2022-09-27T14:28:54.471Z,98939.72
2022-09-27T14:31:25.733Z,98936.25
2022-09-27T14:34:06.165Z,98941.41
2022-09-27T14:36:52.625Z,98941.38
2022-09-27T14:39:33.031Z,98946.66
2022-09-27T14:42:00.105Z,98951.88
2022-09-27T14:44:28.472Z,98957.13
2022-09-27T14:47:09.339Z,98965.84
2022-09-27T14:49:35.834Z,98958.91
2022-09-27T14:52:02.706Z,98965.91
2022-09-27T14:54:30.624Z,98961.56
2022-09-27T14:56:59.943Z,98965.06
2022-09-27T14:59:34.157Z,98972.91
2022-09-27T15:02:03.867Z,98980.72
2022-09-27T15:04:34.915Z,98976.38
2022-09-27T15:07:02.264Z,98985.09
2022-09-27T15:09:32.907Z,98982.47
2022-09-27T15:12:00.878Z,98992.03
2022-09-27T15:14:29.649Z,98985.94
2022-09-27T15:17:00.765Z,98995.53
2022-09-27T15:19:30.424Z,98993.78
2022-09-27T15:22:21.894Z,98986.91
2022-09-27T15:24:48.357Z,98995.59
2022-09-27T15:27:17.388Z,98995.59
2022-09-27T15:29:49.443Z,98987.75
2022-09-27T15:32:18.221Z,98999.91
2022-09-27T15:34:44.754Z,98990.34
2022-09-27T15:37:36.119Z,98993.84
2022-09-27T15:40:46.123Z,98995.59
2022-09-27T15:43:31.797Z,98997.31
2022-09-27T15:46:04.639Z,98995.63
2022-09-27T15:48:33.307Z,98993.03
2022-09-27T15:51:00.724Z,98993.03
2022-09-27T15:53:47.356Z,98991.28
2022-09-27T15:56:15.124Z,98995.63
2022-09-27T15:58:42.105Z,98990.44
2022-09-27T16:01:17.641Z,98993.88
2022-09-27T16:03:44.868Z,98992.16
2022-09-27T16:06:11.734Z,98997.38
2022-09-27T16:08:39.379Z,99001.72
2022-09-27T16:11:05.861Z,99000.88
2022-09-27T16:13:33.353Z,99005.19
2022-09-27T16:16:00.457Z,99006.94
2022-09-27T16:18:30.261Z,99012.19
2022-09-27T16:20:58.233Z,99009.59
2022-09-27T16:23:24.626Z,99010.47
2022-09-27T16:25:52.910Z,99018.31
2022-09-27T16:28:19.341Z,99020.88
2022-09-27T16:30:45.746Z,99027.84
2022-09-27T16:33:12.138Z,99026.97
2022-09-27T16:35:41.084Z,99026.97
2022-09-27T16:38:07.813Z,99020.03
2022-09-27T16:40:34.266Z,99029.59
2022-09-27T16:43:00.716Z,99033.94
2022-09-27T16:45:34.066Z,99036.56
2022-09-27T16:48:01.058Z,99037.41
2022-09-27T16:50:46.084Z,99040.03
2022-09-27T16:53:13.619Z,99045.22
2022-09-27T16:55:40.042Z,99046.97
2022-09-27T16:58:08.259Z,99054.78
2022-09-27T17:00:34.738Z,99056.50
2022-09-27T17:03:01.156Z,99055.66
2022-09-27T17:05:27.533Z,99059.13
2022-09-27T17:07:54.204Z,99066.03
2022-09-27T17:10:21.586Z,99070.38
2022-09-27T17:12:48.324Z,99073.81
2022-09-27T17:15:15.299Z,99070.34
2022-09-27T17:17:41.777Z,99066.03
2022-09-27T17:20:08.197Z,99073.81
2022-09-27T17:22:34.586Z,99071.19
2022-09-27T17:25:01.040Z,99070.31
2022-09-27T17:27:28.260Z,99068.59
2022-09-27T17:29:55.316Z,99067.69
2022-09-27T17:32:24.608Z,99072.00
2022-09-27T17:34:51.764Z,99078.94
2022-09-27T17:37:18.176Z,99078.06
2022-09-27T17:39:44.589Z,99073.72
2022-09-27T17:42:11.803Z,99072.84
2022-09-27T17:44:38.236Z,99075.44
2022-09-27T17:47:23.798Z,99078.00
2022-09-27T17:50:08.667Z,99074.53
2022-09-27T17:52:35.219Z,99074.53
2022-09-27T17:55:01.859Z,99075.41
2022-09-27T17:57:28.402Z,99080.59
2022-09-27T17:59:54.828Z,99078.00
2022-09-27T18:02:21.501Z,99087.53
2022-09-27T18:04:48.120Z,99081.44
2022-09-27T18:07:14.580Z,99081.44
2022-09-27T18:09:40.990Z,99081.41
2022-09-27T18:12:07.521Z,99097.88
2022-09-27T18:14:34.072Z,99086.63
2022-09-27T18:17:00.827Z,99091.81
2022-09-27T18:19:27.238Z,99086.59
2022-09-27T18:21:53.791Z,99082.25
2022-09-27T18:24:20.258Z,99086.56
2022-09-27T18:26:48.956Z,99092.63
2022-09-27T18:29:18.200Z,99091.75
2022-09-27T18:31:48.396Z,99089.16
2022-09-27T18:34:16.646Z,99097.81
2022-09-27T18:36:44.469Z,99096.06
2022-09-27T18:39:15.648Z,99098.66
2022-09-27T18:41:42.100Z,99099.50
2022-09-27T18:44:11.796Z,99102.94
2022-09-27T18:46:38.392Z,99101.19
2022-09-27T18:49:10.459Z,99096.84
2022-09-27T18:51:41.839Z,99098.59
2022-09-27T18:54:15.599Z,99107.19
2022-09-27T18:56:41.996Z,99101.13
2022-09-27T18:59:10.193Z,99105.44
2022-09-27T19:01:43.175Z,99105.44
2022-09-27T19:04:10.445Z,99111.44
2022-09-27T19:06:37.810Z,99101.03
2022-09-27T19:09:04.747Z,99108.81
2022-09-27T19:11:31.227Z,99108.81
2022-09-27T19:13:58.208Z,99119.22
2022-09-27T19:16:25.639Z,99108.81
2022-09-27T19:18:52.481Z,99115.72
2022-09-27T19:21:25.635Z,99112.28
2022-09-27T19:23:52.222Z,99114.88
2022-09-27T19:26:21.252Z,99120.06
2022-09-27T19:28:47.796Z,99111.41
2022-09-27T19:31:16.414Z,99113.97
2022-09-27T19:33:42.878Z,99118.28
2022-09-27T19:36:11.164Z,99117.41
2022-09-27T19:38:38.504Z,99118.25
2022-09-27T19:41:06.139Z,99115.66
2022-09-27T19:43:32.614Z,99113.06
2022-09-27T19:46:11.317Z,99111.31
2022-09-27T19:48:38.338Z,99119.06
2022-09-27T19:51:06.616Z,99118.19
2022-09-27T19:53:34.139Z,99112.09
2022-09-27T19:56:01.406Z,99119.03
2022-09-27T19:58:29.544Z,99114.69
2022-09-27T20:01:05.911Z,99117.28
2022-09-27T20:03:33.031Z,99112.06
2022-09-27T20:05:59.926Z,99112.94
2022-09-27T20:08:27.892Z,99118.13
2022-09-27T20:11:06.177Z,99112.91
2022-09-27T20:13:34.194Z,99123.31
2022-09-27T20:16:05.876Z,99118.13
2022-09-27T20:18:32.480Z,99111.19
2022-09-27T20:21:01.069Z,99112.03
2022-09-27T20:23:28.067Z,99115.50
2022-09-27T20:26:07.629Z,99117.22
2022-09-27T20:28:34.902Z,99115.47
2022-09-27T20:31:05.078Z,99111.13
2022-09-27T20:33:49.463Z,99116.31
2022-09-27T20:36:18.478Z,99111.13
2022-09-27T20:38:50.161Z,99111.97
2022-09-27T20:41:19.517Z,99105.91
2022-09-27T20:43:47.050Z,99109.38
2022-09-27T20:46:18.136Z,99110.25
2022-09-27T20:48:45.629Z,99105.06
2022-09-27T20:51:16.390Z,99105.06
2022-09-27T20:53:45.001Z,99102.47
2022-09-27T20:56:24.608Z,99106.81
2022-09-27T20:58:53.230Z,99100.75
2022-09-27T21:01:21.772Z,99095.56
2022-09-27T21:03:49.306Z,99106.00
2022-09-27T21:06:16.230Z,99094.69
2022-09-27T21:08:42.796Z,99098.19
2022-09-27T21:11:13.560Z,99095.63
2022-09-27T21:13:40.871Z,99093.03
2022-09-27T21:16:09.160Z,99101.66
2022-09-27T21:18:35.746Z,99094.75
2022-09-27T21:21:07.755Z,99099.09
2022-09-27T21:23:35.317Z,99104.28
2022-09-27T21:26:10.337Z,99104.28
2022-09-27T21:28:41.620Z,99108.63
2022-09-27T21:31:10.413Z,99108.63
2022-09-27T21:33:37.804Z,99102.56
2022-09-27T21:36:05.972Z,99098.25
2022-09-27T21:38:33.187Z,99095.66
2022-09-27T21:41:03.403Z,99106.91
2022-09-27T21:43:32.090Z,99102.59
2022-09-27T21:46:08.991Z,99105.19
2022-09-27T21:48:36.706Z,99104.31
2022-09-27T21:51:23.574Z,99103.44
2022-09-27T21:53:52.269Z,99102.56
2022-09-27T21:56:19.858Z,99102.56
2022-09-27T21:58:46.309Z,99099.13
2022-09-27T22:01:16.217Z,99102.59
2022-09-27T22:03:43.508Z,99101.72
2022-09-27T22:06:11.959Z,99102.63
2022-09-27T22:08:38.477Z,99103.50
2022-09-27T22:11:05.181Z,99102.63
2022-09-27T22:13:32.077Z,99105.25
2022-09-27T22:16:06.423Z,99106.13
2022-09-27T22:18:35.280Z,99106.97
2022-09-27T22:21:06.010Z,99100.06
2022-09-27T22:23:32.883Z,99106.13
2022-09-27T22:26:00.221Z,99101.78
2022-09-27T22:28:26.905Z,99104.38
2022-09-27T22:30:53.675Z,99100.03
2022-09-27T22:33:20.159Z,99101.78
2022-09-27T22:35:47.809Z,99099.19
2022-09-27T22:38:14.667Z,99088.75
2022-09-27T22:40:41.762Z,99097.41
2022-09-27T22:43:08.217Z,99102.59
2022-09-27T22:45:34.625Z,99091.34
2022-09-27T22:48:01.153Z,99093.06
2022-09-27T22:50:27.548Z,99093.06
2022-09-27T22:52:53.959Z,99090.44
2022-09-27T22:55:20.366Z,99091.31
2022-09-27T22:57:46.792Z,99087.84
2022-09-27T23:00:13.693Z,99085.25
2022-09-27T23:02:40.098Z,99082.66
2022-09-27T23:05:06.970Z,99087.84
2022-09-27T23:07:33.363Z,99079.19
2022-09-27T23:09:59.759Z,99079.16
2022-09-27T23:12:26.146Z,99077.44
2022-09-27T23:14:52.524Z,99083.50
2022-09-27T23:17:20.317Z,99084.31
2022-09-27T23:19:46.705Z,99082.63
2022-09-27T23:22:13.145Z,99078.31
2022-09-27T23:24:39.548Z,99081.72
2022-09-27T23:27:24.615Z,99079.13
2022-09-27T23:29:50.989Z,99083.50
2022-09-27T23:32:17.378Z,99082.63
2022-09-27T23:34:43.774Z,99077.44
2022-09-27T23:37:10.199Z,99085.22
2022-09-27T23:39:36.610Z,99074.84
2022-09-27T23:42:03.273Z,99083.50
2022-09-27T23:44:29.704Z,99074.84
2022-09-27T23:47:00.201Z,99074.84
2022-09-27T23:49:27.388Z,99074.84
2022-09-27T23:51:54.888Z,99076.59
2022-09-27T23:54:21.639Z,99073.13
2022-09-27T23:56:48.092Z,99073.13
2022-09-27T23:59:15.005Z,99066.16
